createdAt,value
2018-08-07T00:02:02.661Z,92369.81
2018-08-07T00:04:37.466Z,92370.95
2018-08-07T00:07:12.309Z,92371.27
2018-08-07T00:09:47.097Z,92368.88
2018-08-07T00:12:21.859Z,92365.76
2018-08-07T00:14:56.663Z,92362.58
2018-08-07T00:17:31.509Z,92366.23
2018-08-07T00:20:07.730Z,92371.90
2018-08-07T00:22:42.930Z,92371.71
2018-08-07T00:25:17.691Z,92372.14
2018-08-07T00:27:52.649Z,92373.95
2018-08-07T00:30:27.531Z,92377.11
2018-08-07T00:33:02.238Z,92374.41
2018-08-07T00:35:36.891Z,92367.88
2018-08-07T00:38:11.781Z,92366.19
2018-08-07T00:40:46.573Z,92367.94
2018-08-07T00:43:24.948Z,92368.36
2018-08-07T00:46:01.294Z,92371.30
2018-08-07T00:48:35.985Z,92369.05
2018-08-07T00:51:10.895Z,92367.25
2018-08-07T00:53:45.637Z,92368.72
2018-08-07T00:56:20.833Z,92361.13
2018-08-07T00:58:55.772Z,92364.60
2018-08-07T01:01:30.555Z,92363.58
2018-08-07T01:04:05.187Z,92354.81
2018-08-07T01:06:39.910Z,92363.19
2018-08-07T01:09:14.619Z,92361.00
2018-08-07T01:11:49.385Z,92359.00
2018-08-07T01:14:24.242Z,92354.77
2018-08-07T01:16:59.212Z,92348.94
2018-08-07T01:19:33.929Z,92349.16
2018-08-07T01:22:14.644Z,92353.19
2018-08-07T01:24:49.981Z,92355.06
2018-08-07T01:27:24.687Z,92352.08
2018-08-07T01:29:59.532Z,92350.84
2018-08-07T01:32:34.690Z,92355.84
2018-08-07T01:35:09.948Z,92356.75
2018-08-07T01:37:44.724Z,92359.23
2018-08-07T01:40:19.861Z,92360.22
2018-08-07T01:42:54.688Z,92355.66
2018-08-07T01:45:29.542Z,92352.56
2018-08-07T01:48:05.639Z,92355.25
2018-08-07T01:50:40.362Z,92355.33
2018-08-07T01:53:15.104Z,92350.48
2018-08-07T01:55:50.177Z,92353.27
2018-08-07T01:58:25.004Z,92353.55
2018-08-07T02:01:00.196Z,92351.42
2018-08-07T02:03:35.118Z,92351.77
2018-08-07T02:06:09.978Z,92347.72
2018-08-07T02:08:44.756Z,92342.14
2018-08-07T02:11:21.998Z,92352.81
2018-08-07T02:13:56.811Z,92355.64
2018-08-07T02:16:31.529Z,92357.84
2018-08-07T02:19:06.420Z,92360.16
2018-08-07T02:21:41.301Z,92354.63
2018-08-07T02:24:16.411Z,92363.62
2018-08-07T02:26:51.188Z,92358.66
2018-08-07T02:29:25.834Z,92362.31
2018-08-07T02:32:00.722Z,92363.02
2018-08-07T02:34:35.452Z,92366.14
2018-08-07T02:37:10.826Z,92362.10
2018-08-07T02:39:45.849Z,92361.89
2018-08-07T02:42:21.094Z,92365.75
2018-08-07T02:44:55.840Z,92363.48
2018-08-07T02:47:30.797Z,92361.50
2018-08-07T02:50:08.753Z,92369.71
2018-08-07T02:52:43.672Z,92372.37
2018-08-07T02:55:18.676Z,92371.67
2018-08-07T02:57:53.600Z,92376.08
2018-08-07T03:00:28.848Z,92371.31
2018-08-07T03:03:03.613Z,92377.09
2018-08-07T03:05:38.321Z,92372.53
2018-08-07T03:08:12.989Z,92377.20
2018-08-07T03:10:47.716Z,92369.97
2018-08-07T03:13:22.441Z,92374.20
2018-08-07T03:15:57.651Z,92379.26
2018-08-07T03:18:32.569Z,92384.81
